createdAt,value
2022-11-05T00:01:44.920Z,99834.09
2022-11-05T00:04:31.283Z,99835.78
2022-11-05T00:07:38.318Z,99832.00
2022-11-05T00:10:13.385Z,99835.22
2022-11-05T00:12:59.278Z,99841.09
2022-11-05T00:15:46.773Z,99838.63
2022-11-05T00:18:14.157Z,99846.13
2022-11-05T00:20:41.632Z,99838.63
2022-11-05T00:23:27.566Z,99844.50
2022-11-05T00:25:56.366Z,99840.44
2022-11-05T00:28:23.768Z,99852.97
2022-11-05T00:30:53.380Z,99850.53
2022-11-05T00:33:20.991Z,99852.16
2022-11-05T00:35:48.294Z,99856.28
2022-11-05T00:38:15.811Z,99858.63
2022-11-05T00:40:44.560Z,99864.56
2022-11-05T00:43:30.281Z,99874.66
2022-11-05T00:45:59.090Z,99879.03
2022-11-05T00:48:44.874Z,99876.44
2022-11-05T00:51:12.150Z,99879.88
2022-11-05T00:53:39.475Z,99882.53
2022-11-05T00:56:07.492Z,99882.47
2022-11-05T00:58:34.729Z,99883.34
2022-11-05T01:01:04.084Z,99879.13
2022-11-05T01:03:33.409Z,99882.53
2022-11-05T01:06:08.330Z,99890.81
2022-11-05T01:08:35.829Z,99885.72
2022-11-05T01:11:10.177Z,99887.25
2022-11-05T01:13:38.751Z,99888.06
2022-11-05T01:16:10.042Z,99866.22
2022-11-05T01:18:38.410Z,99884.72
2022-11-05T01:21:13.503Z,99893.91
2022-11-05T01:23:40.933Z,99890.66
2022-11-05T01:26:08.218Z,99895.69
2022-11-05T01:28:35.555Z,99903.25
2022-11-05T01:31:02.970Z,99900.72
2022-11-05T01:33:31.954Z,99901.53
2022-11-05T01:35:59.347Z,99890.75
2022-11-05T01:38:26.699Z,99897.31
2022-11-05T01:40:53.897Z,99904.88
2022-11-05T01:43:23.944Z,99907.41
2022-11-05T01:45:53.195Z,99903.59
2022-11-05T01:48:25.503Z,99907.56
2022-11-05T01:50:59.454Z,99906.91
2022-11-05T01:53:30.575Z,99909.53
2022-11-05T01:56:03.253Z,99911.16
2022-11-05T01:58:34.857Z,99917.72
2022-11-05T02:01:02.276Z,99910.47
2022-11-05T02:03:30.588Z,99911.94
2022-11-05T02:06:01.025Z,99914.56
2022-11-05T02:08:52.131Z,99912.94
2022-11-05T02:11:20.596Z,99922.00
2022-11-05T02:13:48.568Z,99915.38
2022-11-05T02:16:24.224Z,99921.22
2022-11-05T02:18:59.209Z,99927.78
2022-11-05T02:22:08.246Z,99919.44
2022-11-05T02:24:56.231Z,99917.97
2022-11-05T02:27:47.861Z,99934.72
2022-11-05T02:30:33.247Z,99940.56
2022-11-05T02:33:22.465Z,99932.81
2022-11-05T02:36:10.471Z,99939.19
2022-11-05T02:38:45.132Z,99949.31
2022-11-05T02:41:21.208Z,99944.28
2022-11-05T02:43:59.923Z,99924.44
2022-11-05T02:46:37.262Z,99948.00
2022-11-05T02:49:12.183Z,99955.50
2022-11-05T02:51:46.292Z,99923.22
2022-11-05T02:54:17.971Z,99958.31
2022-11-05T02:56:48.454Z,99953.88
2022-11-05T02:59:15.696Z,99961.91
2022-11-05T03:01:47.076Z,99954.75
2022-11-05T03:04:17.450Z,99964.72
2022-11-05T03:07:11.730Z,99964.50
2022-11-05T03:10:18.848Z,99966.94
2022-11-05T03:12:59.005Z,99950.84
2022-11-05T03:15:38.864Z,99978.88
2022-11-05T03:18:13.785Z,99971.25
2022-11-05T03:20:47.344Z,99974.66
2022-11-05T03:23:23.447Z,99967.91
2022-11-05T03:25:56.211Z,99970.50
2022-11-05T03:28:28.570Z,99970.34
2022-11-05T03:30:58.427Z,99972.84
2022-11-05T03:33:31.187Z,99971.06
2022-11-05T03:36:00.597Z,99980.25
2022-11-05T03:38:32.774Z,99978.28
2022-11-05T03:41:04.075Z,99991.88
2022-11-05T03:43:35.492Z,99995.38
2022-11-05T03:46:07.832Z,99999.34
2022-11-05T03:48:41.460Z,100000.88
2022-11-05T03:51:17.944Z,99998.38
2022-11-05T03:53:50.293Z,100009.44
2022-11-05T03:56:23.280Z,100001.94
2022-11-05T03:58:56.033Z,99999.84
2022-11-05T04:01:26.712Z,100013.88
2022-11-05T04:03:55.772Z,100017.28
2022-11-05T04:06:41.494Z,100017.28
2022-11-05T04:09:28.592Z,100022.25
2022-11-05T04:12:14.269Z,100019.97
2022-11-05T04:14:41.530Z,100033.16
2022-11-05T04:17:11.597Z,100039.88
2022-11-05T04:20:00.402Z,100031.44
2022-11-05T04:22:47.921Z,100026.78
2022-11-05T04:25:16.662Z,100029.75
2022-11-05T04:27:44.253Z,100035.66
2022-11-05T04:30:18.556Z,100032.50
2022-11-05T04:33:00.418Z,100021.16
2022-11-05T04:35:31.199Z,100032.63
2022-11-05T04:37:58.457Z,100030.19
2022-11-05T04:40:26.049Z,100031.69
2022-11-05T04:42:54.612Z,100030.84
2022-11-05T04:45:22.268Z,100033.16
2022-11-05T04:47:49.842Z,100041.59
2022-11-05T04:50:17.295Z,100034.25
2022-11-05T04:52:46.116Z,100042.78
2022-11-05T04:55:13.728Z,100035.53
2022-11-05T04:57:40.994Z,100031.91
2022-11-05T05:00:09.811Z,100042.63
2022-11-05T05:02:37.377Z,100042.56
2022-11-05T05:05:05.574Z,100033.63
2022-11-05T05:07:33.524Z,100040.94
2022-11-05T05:10:04.290Z,100046.63
2022-11-05T05:12:32.971Z,100030.50
2022-11-05T05:15:00.792Z,100042.63
2022-11-05T05:17:28.291Z,100060.97
2022-11-05T05:20:14.152Z,100049.22
2022-11-05T05:22:41.365Z,100065.00
2022-11-05T05:25:10.203Z,100070.09
2022-11-05T05:27:37.567Z,100067.66
2022-11-05T05:30:05.926Z,100077.66
2022-11-05T05:32:33.429Z,100079.44
2022-11-05T05:35:00.781Z,100076.03
2022-11-05T05:37:27.984Z,100074.97
2022-11-05T05:39:55.224Z,100092.53
2022-11-05T05:42:24.013Z,100084.31
2022-11-05T05:44:51.406Z,100091.88
2022-11-05T05:47:18.666Z,100087.66
2022-11-05T05:49:46.007Z,100095.13
2022-11-05T05:52:13.210Z,100092.59
2022-11-05T05:54:42.933Z,100096.81
2022-11-05T05:57:10.532Z,100101.19
2022-11-05T05:59:39.175Z,100102.19
2022-11-05T06:02:06.989Z,100103.06
2022-11-05T06:04:34.539Z,100113.72
2022-11-05T06:07:01.929Z,100110.47
2022-11-05T06:09:29.144Z,100112.91
2022-11-05T06:11:56.425Z,100112.03
2022-11-05T06:14:23.799Z,100117.66
2022-11-05T06:16:52.505Z,100118.38
2022-11-05T06:19:19.749Z,100111.56
2022-11-05T06:21:47.143Z,100108.22
2022-11-05T06:24:14.607Z,100110.75
2022-11-05T06:26:43.356Z,100113.22
2022-11-05T06:29:10.850Z,100119.72
2022-11-05T06:31:38.226Z,100119.66
2022-11-05T06:34:07.163Z,100118.66
2022-11-05T06:36:34.411Z,100118.66
2022-11-05T06:39:01.657Z,100115.41
2022-11-05T06:41:28.979Z,100117.19
2022-11-05T06:43:56.277Z,100124.81
2022-11-05T06:46:23.494Z,100130.75
2022-11-05T06:48:51.249Z,100124.16
2022-11-05T06:51:20.035Z,100126.91
2022-11-05T06:53:47.392Z,100141.91
2022-11-05T06:56:14.575Z,100143.78
2022-11-05T06:58:41.722Z,100144.59
2022-11-05T07:01:10.745Z,100147.19
2022-11-05T07:03:38.816Z,100154.16
2022-11-05T07:06:07.435Z,100145.88
2022-11-05T07:08:37.642Z,100155.66
2022-11-05T07:11:06.137Z,100156.66
2022-11-05T07:13:33.605Z,100157.94
2022-11-05T07:16:01.072Z,100155.34
2022-11-05T07:18:28.355Z,100170.22
2022-11-05T07:20:55.587Z,100168.44
2022-11-05T07:23:22.982Z,100170.91
2022-11-05T07:25:51.603Z,100164.47
2022-11-05T07:28:18.787Z,100165.19
2022-11-05T07:30:46.174Z,100165.88
2022-11-05T07:33:13.800Z,100170.75
2022-11-05T07:35:41.445Z,100174.50
2022-11-05T07:38:09.205Z,100171.16
2022-11-05T07:40:36.403Z,100179.31
2022-11-05T07:43:05.128Z,100181.78
2022-11-05T07:45:32.490Z,100177.38
2022-11-05T07:48:01.593Z,100181.72
2022-11-05T07:50:31.187Z,100145.41
2022-11-05T07:53:02.292Z,100183.94
2022-11-05T07:55:30.181Z,100187.69
2022-11-05T07:57:57.472Z,100186.72
2022-11-05T08:00:27.261Z,100192.50
2022-11-05T08:03:09.235Z,100187.03
2022-11-05T08:05:38.697Z,100205.09
2022-11-05T08:08:07.492Z,100201.00
2022-11-05T08:10:35.469Z,100192.50
2022-11-05T08:13:02.889Z,100199.25
2022-11-05T08:15:31.856Z,100195.03
2022-11-05T08:17:59.495Z,100202.50
2022-11-05T08:20:27.490Z,100204.94
2022-11-05T08:22:55.164Z,100201.47
2022-11-05T08:25:22.700Z,100196.50
2022-11-05T08:27:55.716Z,100200.41
2022-11-05T08:30:23.245Z,100198.47
2022-11-05T08:32:56.097Z,100196.69
2022-11-05T08:35:23.390Z,100202.31
2022-11-05T08:37:50.883Z,100196.47
2022-11-05T08:40:18.167Z,100206.38
2022-11-05T08:42:45.735Z,100202.00
2022-11-05T08:45:12.965Z,100207.84
2022-11-05T08:47:40.207Z,100199.47
2022-11-05T08:50:09.709Z,100209.41
2022-11-05T08:52:40.190Z,100207.63
2022-11-05T08:55:08.389Z,100208.28
2022-11-05T08:57:35.743Z,100207.47
2022-11-05T09:00:04.222Z,100208.28
2022-11-05T09:02:31.600Z,100211.59
2022-11-05T09:04:58.978Z,100203.09
2022-11-05T09:07:27.971Z,100189.91
2022-11-05T09:09:55.168Z,100196.34
2022-11-05T09:12:22.508Z,100201.63
2022-11-05T09:14:49.777Z,100200.38
2022-11-05T09:17:18.910Z,100197.22
2022-11-05T09:19:46.577Z,100210.00
2022-11-05T09:22:14.002Z,100208.47
2022-11-05T09:24:43.750Z,100207.34
2022-11-05T09:27:13.379Z,100214.84
2022-11-05T09:29:41.346Z,100207.34
2022-11-05T09:32:09.287Z,100205.06
2022-11-05T09:34:36.665Z,100218.06
2022-11-05T09:37:04.428Z,100216.31
2022-11-05T09:39:32.028Z,100182.91
2022-11-05T09:42:04.752Z,100181.13
2022-11-05T09:44:39.864Z,100231.44
2022-11-05T09:47:12.809Z,100219.22
2022-11-05T09:49:44.455Z,100214.91
2022-11-05T09:52:15.676Z,100221.69
2022-11-05T09:54:43.367Z,100220.94
2022-11-05T09:57:17.883Z,100213.28
2022-11-05T09:59:48.987Z,100233.22
2022-11-05T10:02:19.811Z,100191.59
2022-11-05T10:04:50.444Z,100234.19
2022-11-05T10:07:21.658Z,100237.03
2022-11-05T10:09:53.919Z,100242.97
2022-11-05T10:12:28.906Z,100236.28
2022-11-05T10:15:05.989Z,100243.38
2022-11-05T10:17:39.233Z,100247.47
2022-11-05T10:20:15.038Z,100228.72
2022-11-05T10:22:46.607Z,100250.56
2022-11-05T10:25:19.511Z,100233.78
2022-11-05T10:27:53.383Z,100234.38
2022-11-05T10:30:22.154Z,100241.38
2022-11-05T10:32:53.688Z,100238.28
2022-11-05T10:35:24.847Z,100240.38
2022-11-05T10:37:53.800Z,100250.28
2022-11-05T10:40:32.093Z,100255.22
2022-11-05T10:43:05.236Z,100248.78
2022-11-05T10:45:45.586Z,100244.66
2022-11-05T10:48:30.413Z,100242.84
2022-11-05T10:50:58.108Z,100243.72
2022-11-05T10:53:30.155Z,100247.88
2022-11-05T10:55:58.783Z,100244.66
2022-11-05T10:58:29.937Z,100247.16
2022-11-05T11:01:15.026Z,100245.28
2022-11-05T11:03:44.937Z,100236.50
2022-11-05T11:06:25.375Z,100230.88
2022-11-05T11:08:55.133Z,100257.09
2022-11-05T11:11:29.675Z,100253.75
2022-11-05T11:14:04.819Z,100257.66
2022-11-05T11:16:38.111Z,100247.78
2022-11-05T11:19:24.522Z,100266.78
2022-11-05T11:22:18.719Z,100255.59
2022-11-05T11:24:49.057Z,100271.09
2022-11-05T11:27:22.350Z,100263.69
2022-11-05T11:29:57.532Z,100272.97
2022-11-05T11:32:28.722Z,100270.50
2022-11-05T11:34:58.260Z,100269.69
2022-11-05T11:37:28.595Z,100279.84
2022-11-05T11:40:02.251Z,100252.16
2022-11-05T11:42:33.128Z,100280.09
2022-11-05T11:45:06.735Z,100266.59
2022-11-05T11:47:34.305Z,100275.72
2022-11-05T11:50:03.196Z,100279.84
2022-11-05T11:52:32.321Z,100265.88
2022-11-05T11:55:21.401Z,100265.47
2022-11-05T11:57:51.506Z,100251.63
2022-11-05T12:00:23.553Z,100272.28
2022-11-05T12:03:19.110Z,100283.06
2022-11-05T12:05:51.070Z,100294.03
2022-11-05T12:08:44.328Z,100287.28
2022-11-05T12:11:18.542Z,100289.94
2022-11-05T12:13:58.677Z,100287.41
2022-11-05T12:16:41.919Z,100288.34
2022-11-05T12:19:22.612Z,100295.00
2022-11-05T12:22:00.264Z,100284.66
2022-11-05T12:24:43.896Z,100296.34
2022-11-05T12:27:26.544Z,100294.00
2022-11-05T12:30:00.141Z,100289.84
2022-11-05T12:32:47.831Z,100275.25
2022-11-05T12:35:35.021Z,100295.75
2022-11-05T12:38:16.202Z,100304.97
2022-11-05T12:40:52.630Z,100294.22
2022-11-05T12:43:32.190Z,100301.88
2022-11-05T12:46:06.701Z,100306.91
2022-11-05T12:49:01.197Z,100305.19
2022-11-05T12:51:41.273Z,100305.44
2022-11-05T12:54:21.023Z,100300.41
2022-11-05T12:56:53.242Z,100317.31
2022-11-05T12:59:25.122Z,100298.28
2022-11-05T13:01:57.923Z,100310.78
2022-11-05T13:04:34.751Z,100303.53
2022-11-05T13:07:05.922Z,100295.53
2022-11-05T13:09:37.763Z,100288.41
2022-11-05T13:12:08.970Z,100312.28
2022-11-05T13:14:43.474Z,100310.81
2022-11-05T13:17:14.140Z,100304.34
2022-11-05T13:19:49.296Z,100312.81
2022-11-05T13:22:33.506Z,100320.38
2022-11-05T13:25:05.457Z,100317.03
2022-11-05T13:27:53.914Z,100337.19
2022-11-05T13:30:23.270Z,100335.50
2022-11-05T13:32:56.333Z,100323.94
2022-11-05T13:35:30.029Z,100339.06
2022-11-05T13:38:23.074Z,100336.75
2022-11-05T13:41:09.888Z,100342.84
2022-11-05T13:43:55.462Z,100347.72
2022-11-05T13:46:40.270Z,100353.59
2022-11-05T13:49:30.185Z,100357.81
2022-11-05T13:52:33.063Z,100364.66
2022-11-05T13:55:27.077Z,100354.84
2022-11-05T13:58:12.022Z,100333.84
2022-11-05T14:00:45.904Z,100317.44
2022-11-05T14:03:20.097Z,100364.38
2022-11-05T14:05:53.938Z,100367.88
2022-11-05T14:08:27.983Z,100358.69
2022-11-05T14:11:01.066Z,100361.41
2022-11-05T14:13:33.094Z,100378.19
2022-11-05T14:16:07.520Z,100345.31
2022-11-05T14:18:41.858Z,100367.56
2022-11-05T14:21:48.729Z,100357.47
2022-11-05T14:24:26.763Z,100356.81
2022-11-05T14:27:27.316Z,100368.50
2022-11-05T14:29:54.866Z,100377.84
2022-11-05T14:32:27.890Z,100372.72
2022-11-05T14:35:01.115Z,100352.38
2022-11-05T14:37:33.900Z,100359.94
2022-11-05T14:40:29.503Z,100371.94
2022-11-05T14:42:59.764Z,100370.28
2022-11-05T14:45:30.702Z,100335.19
2022-11-05T14:47:59.733Z,100372.88
2022-11-05T14:50:35.494Z,100373.53
2022-11-05T14:53:10.783Z,100371.84
2022-11-05T14:55:42.793Z,100376.06
2022-11-05T14:58:33.898Z,100370.34
2022-11-05T15:01:02.656Z,100382.81
2022-11-05T15:03:58.181Z,100380.50
2022-11-05T15:06:34.328Z,100390.44
2022-11-05T15:09:13.646Z,100383.00
2022-11-05T15:11:49.690Z,100392.16
2022-11-05T15:14:22.797Z,100389.91
2022-11-05T15:16:53.123Z,100391.59
2022-11-05T15:19:25.787Z,100380.78
2022-11-05T15:21:55.698Z,100396.56
2022-11-05T15:24:25.595Z,100391.53
2022-11-05T15:27:02.129Z,100397.41
2022-11-05T15:29:31.867Z,100368.28
2022-11-05T15:32:00.081Z,100403.09
2022-11-05T15:34:31.057Z,100402.22
2022-11-05T15:37:00.284Z,100404.59
2022-11-05T15:39:38.443Z,100402.16
2022-11-05T15:42:13.907Z,100406.50
2022-11-05T15:44:42.930Z,100408.09
2022-11-05T15:47:16.286Z,100414.66
2022-11-05T15:49:45.751Z,100412.91
2022-11-05T15:52:14.920Z,100415.50
2022-11-05T15:54:42.372Z,100407.72
2022-11-05T15:57:22.793Z,100397.66
2022-11-05T15:59:50.158Z,100397.66
2022-11-05T16:02:30.831Z,100368.00
2022-11-05T16:05:00.454Z,100400.91
2022-11-05T16:07:28.484Z,100409.22
2022-11-05T16:09:58.468Z,100401.59
2022-11-05T16:12:32.505Z,100395.88
2022-11-05T16:15:06.477Z,100377.31
2022-11-05T16:17:47.177Z,100414.13
2022-11-05T16:20:24.284Z,100396.69
2022-11-05T16:22:54.136Z,100390.09
2022-11-05T16:25:37.453Z,100405.91
2022-11-05T16:28:20.188Z,100397.66
2022-11-05T16:30:58.166Z,100396.31
2022-11-05T16:33:31.160Z,100413.03
2022-11-05T16:35:58.667Z,100413.78
2022-11-05T16:38:26.180Z,100412.31
2022-11-05T16:40:53.459Z,100413.84
2022-11-05T16:43:24.655Z,100423.00
2022-11-05T16:45:54.509Z,100417.94
2022-11-05T16:48:22.371Z,100412.91
2022-11-05T16:50:49.665Z,100417.94
2022-11-05T16:53:17.500Z,100419.59
2022-11-05T16:55:45.734Z,100409.63
2022-11-05T16:58:19.967Z,100423.00
2022-11-05T17:00:50.217Z,100423.00
2022-11-05T17:03:18.172Z,100418.88
2022-11-05T17:05:45.592Z,100419.84
2022-11-05T17:08:13.303Z,100420.75
2022-11-05T17:10:40.862Z,100419.25
2022-11-05T17:13:09.257Z,100421.91
2022-11-05T17:15:36.949Z,100423.81
2022-11-05T17:18:06.069Z,100420.28
2022-11-05T17:20:40.252Z,100407.50
2022-11-05T17:23:09.348Z,100423.88
2022-11-05T17:25:36.968Z,100421.44
2022-11-05T17:28:04.798Z,100427.34
2022-11-05T17:30:32.175Z,100426.53
2022-11-05T17:32:59.562Z,100422.25
2022-11-05T17:35:28.411Z,100433.13
2022-11-05T17:37:55.971Z,100418.09
2022-11-05T17:40:24.005Z,100423.06
2022-11-05T17:42:52.503Z,100423.13
2022-11-05T17:45:19.818Z,100429.13
2022-11-05T17:47:47.215Z,100422.44
2022-11-05T17:50:16.377Z,100422.97
2022-11-05T17:52:45.057Z,100436.13
2022-11-05T17:55:17.461Z,100423.88
2022-11-05T17:57:46.423Z,100431.75
2022-11-05T18:00:15.886Z,100412.13
2022-11-05T18:02:43.333Z,100435.03
2022-11-05T18:05:12.384Z,100433.41
2022-11-05T18:07:39.634Z,100436.06
2022-11-05T18:10:09.648Z,100426.25
2022-11-05T18:12:37.341Z,100439.31
2022-11-05T18:15:05.647Z,100437.72
2022-11-05T18:17:33.040Z,100435.03
2022-11-05T18:20:00.317Z,100432.78
2022-11-05T18:22:28.071Z,100444.50
2022-11-05T18:24:55.978Z,100444.66
2022-11-05T18:27:27.721Z,100447.91
2022-11-05T18:29:55.154Z,100444.66
2022-11-05T18:32:22.443Z,100442.13
2022-11-05T18:34:49.955Z,100448.78
2022-11-05T18:37:17.563Z,100447.09
2022-11-05T18:39:45.294Z,100444.03
2022-11-05T18:42:12.620Z,100453.41
2022-11-05T18:44:41.320Z,100442.41
2022-11-05T18:47:10.049Z,100445.78
2022-11-05T18:49:37.591Z,100440.13
2022-11-05T18:52:05.144Z,100449.94
2022-11-05T18:54:32.823Z,100444.91
2022-11-05T18:57:00.100Z,100444.91
2022-11-05T18:59:37.630Z,100437.56
2022-11-05T19:02:08.803Z,100454.22
2022-11-05T19:04:36.461Z,100454.22
2022-11-05T19:07:05.399Z,100460.13
2022-11-05T19:09:34.032Z,100472.72
2022-11-05T19:12:01.874Z,100457.69
2022-11-05T19:14:30.343Z,100460.28
2022-11-05T19:16:58.674Z,100471.84
2022-11-05T19:19:27.770Z,100471.84
2022-11-05T19:21:55.169Z,100476.88
2022-11-05T19:24:22.392Z,100475.38
2022-11-05T19:26:50.495Z,100478.88
2022-11-05T19:29:18.282Z,100495.66
2022-11-05T19:31:46.150Z,100480.38
2022-11-05T19:34:14.925Z,100480.19
2022-11-05T19:37:02.842Z,100485.47
2022-11-05T19:39:30.143Z,100484.97
2022-11-05T19:42:02.961Z,100481.84
2022-11-05T19:44:31.519Z,100497.75
2022-11-05T19:46:59.136Z,100496.94
2022-11-05T19:49:28.312Z,100490.41
2022-11-05T19:51:56.217Z,100490.63
2022-11-05T19:54:24.923Z,100500.75
2022-11-05T19:56:52.491Z,100498.25
2022-11-05T19:59:19.886Z,100488.56
2022-11-05T20:01:47.425Z,100501.81
2022-11-05T20:04:14.988Z,100497.59
2022-11-05T20:06:42.290Z,100500.94
2022-11-05T20:09:22.493Z,100476.31
2022-11-05T20:11:54.551Z,100495.97
2022-11-05T20:14:23.370Z,100505.75
2022-11-05T20:16:51.135Z,100506.56
2022-11-05T20:19:20.925Z,100458.25
2022-11-05T20:21:48.798Z,100513.72
2022-11-05T20:24:23.654Z,100518.56
2022-11-05T20:26:54.576Z,100511.78
2022-11-05T20:29:22.988Z,100515.03
2022-11-05T20:31:51.376Z,100504.97
2022-11-05T20:34:18.598Z,100505.78
2022-11-05T20:36:45.925Z,100503.34
2022-11-05T20:39:13.356Z,100504.88
2022-11-05T20:41:40.751Z,100502.06
2022-11-05T20:44:09.921Z,100499.19
2022-11-05T20:46:37.148Z,100504.97
2022-11-05T20:49:04.498Z,100495.91
2022-11-05T20:51:32.141Z,100501.19
2022-11-05T20:54:01.065Z,100493.72
2022-11-05T20:56:30.427Z,100511.00
2022-11-05T20:58:59.123Z,100504.97
2022-11-05T21:01:30.263Z,100510.81
2022-11-05T21:03:57.958Z,100507.25
2022-11-05T21:06:25.851Z,100508.13
2022-11-05T21:08:53.990Z,100505.41
2022-11-05T21:11:21.275Z,100505.41
2022-11-05T21:13:48.884Z,100505.34
2022-11-05T21:16:18.757Z,100500.31
2022-11-05T21:18:48.135Z,100495.28
2022-11-05T21:21:17.318Z,100497.94
2022-11-05T21:23:44.821Z,100498.00
2022-11-05T21:26:14.080Z,100494.91
2022-11-05T21:28:42.210Z,100490.00
2022-11-05T21:31:10.169Z,100499.25
2022-11-05T21:33:37.731Z,100503.50
2022-11-05T21:36:12.027Z,100474.41
2022-11-05T21:38:40.037Z,100506.72
2022-11-05T21:41:08.673Z,100518.44
2022-11-05T21:43:38.245Z,100492.22
2022-11-05T21:46:05.597Z,100511.75
2022-11-05T21:48:33.254Z,100531.75
2022-11-05T21:51:19.182Z,100516.53
2022-11-05T21:54:06.354Z,100514.72
2022-11-05T21:56:52.607Z,100521.22
2022-11-05T21:59:40.614Z,100541.34
2022-11-05T22:02:11.333Z,100517.22
2022-11-05T22:04:40.479Z,100524.72
2022-11-05T22:07:09.246Z,100536.41
2022-11-05T22:09:38.276Z,100529.63
2022-11-05T22:12:06.061Z,100524.72
2022-11-05T22:14:34.233Z,100524.09
2022-11-05T22:17:02.081Z,100524.38
2022-11-05T22:19:29.463Z,100524.44
2022-11-05T22:21:56.863Z,100523.56
2022-11-05T22:24:24.337Z,100523.78
2022-11-05T22:26:52.992Z,100526.19
2022-11-05T22:29:20.394Z,100525.19
2022-11-05T22:31:47.930Z,100533.38
2022-11-05T22:34:15.253Z,100538.41
2022-11-05T22:36:43.728Z,100543.31
2022-11-05T22:39:11.990Z,100548.16
2022-11-05T22:41:39.970Z,100542.63
2022-11-05T22:44:10.715Z,100525.66
2022-11-05T22:46:38.491Z,100552.72
2022-11-05T22:49:07.292Z,100556.88
2022-11-05T22:51:36.070Z,100555.31
2022-11-05T22:54:04.190Z,100559.47
2022-11-05T22:56:33.263Z,100534.94
2022-11-05T22:59:00.613Z,100555.50
2022-11-05T23:01:29.656Z,100563.06
2022-11-05T23:03:58.782Z,100563.91
2022-11-05T23:06:46.046Z,100566.66
2022-11-05T23:09:34.617Z,100568.34
2022-11-05T23:12:02.714Z,100565.78
2022-11-05T23:14:30.297Z,100566.66
2022-11-05T23:17:17.643Z,100564.97
2022-11-05T23:20:03.578Z,100559.91
2022-11-05T23:22:50.793Z,100566.72
2022-11-05T23:25:19.663Z,100567.34
2022-11-05T23:27:49.117Z,100558.25
2022-11-05T23:30:18.667Z,100552.56
2022-11-05T23:32:48.359Z,100567.31
2022-11-05T23:35:16.404Z,100559.75
2022-11-05T23:38:01.918Z,100564.84
2022-11-05T23:40:30.908Z,100539.38
2022-11-05T23:43:16.778Z,100563.50
2022-11-05T23:46:03.267Z,100565.72
2022-11-05T23:48:34.369Z,100561.75
2022-11-05T23:51:04.507Z,100561.56
2022-11-05T23:53:34.745Z,100562.38
2022-11-05T23:56:04.718Z,100544.66
2022-11-05T23:58:32.872Z,100561.38
